sensor_id;sensor_type;location;lat;lon;timestamp;P1;durP1;ratioP1;P2;durP2;ratioP2
41456;SDS011;27197;51.752;5.220;2023-08-06T00:02:33;2.50;;;1.65;;
41456;SDS011;27197;51.752;5.220;2023-08-06T00:05:03;3.05;;;1.82;;
41456;SDS011;27197;51.752;5.220;2023-08-06T00:07:35;2.90;;;1.70;;
41456;SDS011;27197;51.752;5.220;2023-08-06T00:10:05;2.27;;;1.37;;
41456;SDS011;27197;51.752;5.220;2023-08-06T00:12:39;1.92;;;1.30;;
41456;SDS011;27197;51.752;5.220;2023-08-06T00:15:11;2.55;;;1.62;;
41456;SDS011;27197;51.752;5.220;2023-08-06T00:17:41;1.90;;;1.20;;
41456;SDS011;27197;51.752;5.220;2023-08-06T00:20:11;4.62;;;2.67;;
41456;SDS011;27197;51.752;5.220;2023-08-06T00:22:45;5.35;;;2.22;;
41456;SDS011;27197;51.752;5.220;2023-08-06T00:25:15;5.08;;;1.92;;
41456;SDS011;27197;51.752;5.220;2023-08-06T00:27:46;2.98;;;1.40;;
41456;SDS011;27197;51.752;5.220;2023-08-06T00:30:18;2.75;;;1.55;;
41456;SDS011;27197;51.752;5.220;2023-08-06T00:32:52;2.67;;;1.60;;
41456;SDS011;27197;51.752;5.220;2023-08-06T00:35:21;2.98;;;1.90;;
41456;SDS011;27197;51.752;5.220;2023-08-06T00:37:55;3.45;;;2.02;;
41456;SDS011;27197;51.752;5.220;2023-08-06T00:40:25;2.92;;;1.47;;
41456;SDS011;27197;51.752;5.220;2023-08-06T00:42:56;3.42;;;1.98;;
41456;SDS011;27197;51.752;5.220;2023-08-06T00:45:29;4.30;;;1.70;;
41456;SDS011;27197;51.752;5.220;2023-08-06T00:48:17;3.20;;;1.77;;
41456;SDS011;27197;51.752;5.220;2023-08-06T00:50:47;3.52;;;2.00;;
41456;SDS011;27197;51.752;5.220;2023-08-06T00:53:17;2.42;;;1.60;;
41456;SDS011;27197;51.752;5.220;2023-08-06T00:55:51;2.52;;;1.52;;
41456;SDS011;27197;51.752;5.220;2023-08-06T00:58:21;2.25;;;1.50;;
41456;SDS011;27197;51.752;5.220;2023-08-06T01:00:56;2.98;;;1.92;;
41456;SDS011;27197;51.752;5.220;2023-08-06T01:03:26;2.62;;;1.60;;
41456;SDS011;27197;51.752;5.220;2023-08-06T01:06:01;3.15;;;2.08;;
41456;SDS011;27197;51.752;5.220;2023-08-06T01:11:33;2.60;;;1.75;;
41456;SDS011;27197;51.752;5.220;2023-08-06T01:14:02;2.50;;;1.42;;
41456;SDS011;27197;51.752;5.220;2023-08-06T01:16:35;2.40;;;1.42;;
41456;SDS011;27197;51.752;5.220;2023-08-06T01:19:18;4.60;;;2.65;;
41456;SDS011;27197;51.752;5.220;2023-08-06T01:21:49;2.90;;;1.95;;
41456;SDS011;27197;51.752;5.220;2023-08-06T01:24:20;2.62;;;1.80;;
41456;SDS011;27197;51.752;5.220;2023-08-06T01:29:39;2.20;;;1.40;;
41456;SDS011;27197;51.752;5.220;2023-08-06T01:32:22;1.72;;;1.30;;
41456;SDS011;27197;51.752;5.220;2023-08-06T01:34:52;2.15;;;1.45;;
41456;SDS011;27197;51.752;5.220;2023-08-06T01:37:40;3.58;;;1.60;;
41456;SDS011;27197;51.752;5.220;2023-08-06T01:40:12;2.52;;;1.50;;
41456;SDS011;27197;51.752;5.220;2023-08-06T01:42:44;2.33;;;1.40;;
41456;SDS011;27197;51.752;5.220;2023-08-06T01:45:16;2.90;;;1.70;;
41456;SDS011;27197;51.752;5.220;2023-08-06T01:47:46;2.37;;;1.37;;
41456;SDS011;27197;51.752;5.220;2023-08-06T01:50:17;2.30;;;1.40;;
41456;SDS011;27197;51.752;5.220;2023-08-06T01:52:48;2.10;;;1.30;;
41456;SDS011;27197;51.752;5.220;2023-08-06T01:55:19;2.02;;;1.20;;
41456;SDS011;27197;51.752;5.220;2023-08-06T01:57:51;2.47;;;1.40;;
41456;SDS011;27197;51.752;5.220;2023-08-06T02:00:23;2.02;;;1.42;;
41456;SDS011;27197;51.752;5.220;2023-08-06T02:02:54;1.90;;;1.40;;
41456;SDS011;27197;51.752;5.220;2023-08-06T02:05:25;1.87;;;1.32;;
41456;SDS011;27197;51.752;5.220;2023-08-06T02:07:56;1.87;;;1.35;;
41456;SDS011;27197;51.752;5.220;2023-08-06T02:10:28;2.50;;;1.37;;
41456;SDS011;27197;51.752;5.220;2023-08-06T02:12:59;2.30;;;1.52;;
41456;SDS011;27197;51.752;5.220;2023-08-06T02:15:34;3.05;;;1.80;;
41456;SDS011;27197;51.752;5.220;2023-08-06T02:18:02;2.85;;;1.47;;
41456;SDS011;27197;51.752;5.220;2023-08-06T02:20:36;2.87;;;1.57;;
41456;SDS011;27197;51.752;5.220;2023-08-06T02:23:04;2.37;;;1.50;;
41456;SDS011;27197;51.752;5.220;2023-08-06T02:25:35;2.90;;;1.50;;
41456;SDS011;27197;51.752;5.220;2023-08-06T02:28:06;2.25;;;1.47;;
41456;SDS011;27197;51.752;5.220;2023-08-06T02:30:39;2.75;;;1.57;;
41456;SDS011;27197;51.752;5.220;2023-08-06T02:33:09;2.58;;;1.40;;
41456;SDS011;27197;51.752;5.220;2023-08-06T02:35:41;2.47;;;1.30;;
41456;SDS011;27197;51.752;5.220;2023-08-06T02:38:12;2.25;;;1.55;;
41456;SDS011;27197;51.752;5.220;2023-08-06T02:40:44;2.00;;;1.32;;
41456;SDS011;27197;51.752;5.220;2023-08-06T02:43:15;3.12;;;1.47;;
41456;SDS011;27197;51.752;5.220;2023-08-06T02:45:48;2.92;;;1.57;;
41456;SDS011;27197;51.752;5.220;2023-08-06T02:48:16;1.92;;;1.22;;
41456;SDS011;27197;51.752;5.220;2023-08-06T02:50:48;1.80;;;1.37;;
41456;SDS011;27197;51.752;5.220;2023-08-06T02:53:16;2.85;;;1.30;;
41456;SDS011;27197;51.752;5.220;2023-08-06T02:55:50;2.30;;;1.60;;
41456;SDS011;27197;51.752;5.220;2023-08-06T02:58:20;2.08;;;1.47;;
41456;SDS011;27197;51.752;5.220;2023-08-06T03:01:04;1.90;;;1.40;;
41456;SDS011;27197;51.752;5.220;2023-08-06T03:03:32;1.98;;;1.40;;
41456;SDS011;27197;51.752;5.220;2023-08-06T03:06:06;2.15;;;1.22;;
41456;SDS011;27197;51.752;5.220;2023-08-06T03:08:36;3.30;;;1.40;;
41456;SDS011;27197;51.752;5.220;2023-08-06T03:11:09;2.62;;;1.70;;
41456;SDS011;27197;51.752;5.220;2023-08-06T03:13:42;2.10;;;1.45;;
41456;SDS011;27197;51.752;5.220;2023-08-06T03:16:13;2.22;;;1.22;;
41456;SDS011;27197;51.752;5.220;2023-08-06T03:18:47;2.20;;;1.45;;
41456;SDS011;27197;51.752;5.220;2023-08-06T03:21:17;2.90;;;1.40;;
41456;SDS011;27197;51.752;5.220;2023-08-06T03:23:48;3.00;;;1.57;;
41456;SDS011;27197;51.752;5.220;2023-08-06T03:26:20;2.50;;;1.60;;
41456;SDS011;27197;51.752;5.220;2023-08-06T03:28:51;2.00;;;1.40;;
41456;SDS011;27197;51.752;5.220;2023-08-06T03:31:24;1.92;;;1.20;;
41456;SDS011;27197;51.752;5.220;2023-08-06T03:33:57;2.33;;;1.52;;
41456;SDS011;27197;51.752;5.220;2023-08-06T03:36:29;2.42;;;1.45;;
41456;SDS011;27197;51.752;5.220;2023-08-06T03:38:58;2.20;;;1.40;;
41456;SDS011;27197;51.752;5.220;2023-08-06T03:41:32;2.75;;;1.30;;
41456;SDS011;27197;51.752;5.220;2023-08-06T03:44:02;1.83;;;1.60;;
41456;SDS011;27197;51.752;5.220;2023-08-06T03:46:37;2.30;;;1.47;;
41456;SDS011;27197;51.752;5.220;2023-08-06T03:49:07;2.55;;;1.52;;
41456;SDS011;27197;51.752;5.220;2023-08-06T03:51:41;2.30;;;1.42;;
41456;SDS011;27197;51.752;5.220;2023-08-06T03:54:10;1.90;;;1.47;;
41456;SDS011;27197;51.752;5.220;2023-08-06T03:56:41;2.92;;;1.67;;
41456;SDS011;27197;51.752;5.220;2023-08-06T03:59:10;2.15;;;1.55;;
41456;SDS011;27197;51.752;5.220;2023-08-06T04:01:42;2.20;;;1.47;;
41456;SDS011;27197;51.752;5.220;2023-08-06T04:04:12;1.80;;;1.30;;
41456;SDS011;27197;51.752;5.220;2023-08-06T04:06:42;2.95;;;1.67;;
41456;SDS011;27197;51.752;5.220;2023-08-06T04:09:11;2.50;;;1.57;;
41456;SDS011;27197;51.752;5.220;2023-08-06T04:11:44;1.87;;;1.42;;
41456;SDS011;27197;51.752;5.220;2023-08-06T04:14:15;3.08;;;1.70;;
41456;SDS011;27197;51.752;5.220;2023-08-06T04:16:46;2.22;;;1.30;;
41456;SDS011;27197;51.752;5.220;2023-08-06T04:19:19;2.37;;;1.40;;
41456;SDS011;27197;51.752;5.220;2023-08-06T04:21:52;3.22;;;1.80;;
41456;SDS011;27197;51.752;5.220;2023-08-06T04:24:22;2.50;;;1.55;;
41456;SDS011;27197;51.752;5.220;2023-08-06T04:26:54;2.25;;;1.55;;
41456;SDS011;27197;51.752;5.220;2023-08-06T04:29:25;2.25;;;1.60;;
41456;SDS011;27197;51.752;5.220;2023-08-06T04:31:58;2.20;;;1.70;;
41456;SDS011;27197;51.752;5.220;2023-08-06T04:34:27;2.50;;;1.40;;
41456;SDS011;27197;51.752;5.220;2023-08-06T04:36:57;2.58;;;1.70;;
41456;SDS011;27197;51.752;5.220;2023-08-06T04:39:31;1.92;;;1.52;;
41456;SDS011;27197;51.752;5.220;2023-08-06T04:42:03;2.65;;;1.92;;
41456;SDS011;27197;51.752;5.220;2023-08-06T04:44:38;2.42;;;1.82;;
41456;SDS011;27197;51.752;5.220;2023-08-06T04:47:08;1.98;;;1.52;;
41456;SDS011;27197;51.752;5.220;2023-08-06T04:49:38;2.45;;;1.52;;
41456;SDS011;27197;51.752;5.220;2023-08-06T04:52:11;2.27;;;1.32;;
41456;SDS011;27197;51.752;5.220;2023-08-06T04:54:40;2.02;;;1.42;;
41456;SDS011;27197;51.752;5.220;2023-08-06T04:57:14;2.42;;;1.50;;
41456;SDS011;27197;51.752;5.220;2023-08-06T04:59:43;2.62;;;1.50;;
41456;SDS011;27197;51.752;5.220;2023-08-06T05:02:14;2.80;;;1.50;;
41456;SDS011;27197;51.752;5.220;2023-08-06T05:04:44;2.52;;;1.65;;
41456;SDS011;27197;51.752;5.220;2023-08-06T05:07:16;2.60;;;1.50;;
41456;SDS011;27197;51.752;5.220;2023-08-06T05:09:50;2.65;;;1.60;;
41456;SDS011;27197;51.752;5.220;2023-08-06T05:12:21;2.10;;;1.50;;
41456;SDS011;27197;51.752;5.220;2023-08-06T05:14:51;2.25;;;1.55;;
41456;SDS011;27197;51.752;5.220;2023-08-06T05:17:22;2.33;;;1.50;;
41456;SDS011;27197;51.752;5.220;2023-08-06T05:19:53;2.60;;;1.70;;
41456;SDS011;27197;51.752;5.220;2023-08-06T05:22:24;2.77;;;1.75;;
41456;SDS011;27197;51.752;5.220;2023-08-06T05:27:43;2.37;;;1.70;;
41456;SDS011;27197;51.752;5.220;2023-08-06T05:30:14;2.25;;;1.52;;
41456;SDS011;27197;51.752;5.220;2023-08-06T05:32:46;2.52;;;1.62;;
41456;SDS011;27197;51.752;5.220;2023-08-06T05:35:20;2.65;;;1.70;;
41456;SDS011;27197;51.752;5.220;2023-08-06T05:37:50;2.98;;;2.00;;
41456;SDS011;27197;51.752;5.220;2023-08-06T05:40:19;2.33;;;1.52;;
41456;SDS011;27197;51.752;5.220;2023-08-06T05:42:56;2.70;;;1.67;;
41456;SDS011;27197;51.752;5.220;2023-08-06T05:45:39;3.30;;;1.72;;
41456;SDS011;27197;51.752;5.220;2023-08-06T05:48:09;3.45;;;1.67;;
41456;SDS011;27197;51.752;5.220;2023-08-06T05:50:38;2.27;;;1.55;;
41456;SDS011;27197;51.752;5.220;2023-08-06T05:53:09;2.65;;;1.72;;
41456;SDS011;27197;51.752;5.220;2023-08-06T05:55:39;2.87;;;1.87;;
41456;SDS011;27197;51.752;5.220;2023-08-06T05:58:08;2.90;;;1.60;;
41456;SDS011;27197;51.752;5.220;2023-08-06T06:00:38;3.08;;;1.77;;
41456;SDS011;27197;51.752;5.220;2023-08-06T06:03:10;3.05;;;1.90;;
41456;SDS011;27197;51.752;5.220;2023-08-06T06:05:40;2.70;;;1.87;;
41456;SDS011;27197;51.752;5.220;2023-08-06T06:08:10;2.15;;;1.62;;
41456;SDS011;27197;51.752;5.220;2023-08-06T06:10:42;2.75;;;1.80;;
41456;SDS011;27197;51.752;5.220;2023-08-06T06:13:17;2.80;;;1.62;;
41456;SDS011;27197;51.752;5.220;2023-08-06T06:15:49;2.67;;;1.90;;
41456;SDS011;27197;51.752;5.220;2023-08-06T06:18:23;3.72;;;1.87;;
41456;SDS011;27197;51.752;5.220;2023-08-06T06:20:53;2.58;;;1.85;;
41456;SDS011;27197;51.752;5.220;2023-08-06T06:23:28;4.00;;;2.10;;
41456;SDS011;27197;51.752;5.220;2023-08-06T06:25:59;3.45;;;2.02;;
41456;SDS011;27197;51.752;5.220;2023-08-06T06:28:31;2.90;;;1.92;;
41456;SDS011;27197;51.752;5.220;2023-08-06T06:31:05;2.83;;;1.80;;
41456;SDS011;27197;51.752;5.220;2023-08-06T06:33:35;2.58;;;1.80;;
41456;SDS011;27197;51.752;5.220;2023-08-06T06:36:06;2.80;;;1.72;;
41456;SDS011;27197;51.752;5.220;2023-08-06T06:38:40;1.92;;;1.20;;
41456;SDS011;27197;51.752;5.220;2023-08-06T06:41:10;2.15;;;1.47;;
41456;SDS011;27197;51.752;5.220;2023-08-06T06:43:43;2.58;;;1.85;;
41456;SDS011;27197;51.752;5.220;2023-08-06T06:46:13;2.90;;;1.42;;
41456;SDS011;27197;51.752;5.220;2023-08-06T06:48:47;2.67;;;1.47;;
41456;SDS011;27197;51.752;5.220;2023-08-06T06:51:17;3.50;;;1.82;;
41456;SDS011;27197;51.752;5.220;2023-08-06T06:53:50;2.45;;;1.72;;
41456;SDS011;27197;51.752;5.220;2023-08-06T06:56:25;2.08;;;1.40;;
41456;SDS011;27197;51.752;5.220;2023-08-06T06:58:55;2.72;;;1.47;;
41456;SDS011;27197;51.752;5.220;2023-08-06T07:01:28;3.92;;;1.57;;
41456;SDS011;27197;51.752;5.220;2023-08-06T07:03:58;2.62;;;1.45;;
41456;SDS011;27197;51.752;5.220;2023-08-06T07:06:31;2.75;;;1.12;;
41456;SDS011;27197;51.752;5.220;2023-08-06T07:09:05;1.87;;;1.30;;
41456;SDS011;27197;51.752;5.220;2023-08-06T07:11:36;1.98;;;1.30;;
41456;SDS011;27197;51.752;5.220;2023-08-06T07:14:07;2.05;;;1.30;;
41456;SDS011;27197;51.752;5.220;2023-08-06T07:16:40;1.65;;;1.17;;
41456;SDS011;27197;51.752;5.220;2023-08-06T07:19:09;2.08;;;1.35;;
41456;SDS011;27197;51.752;5.220;2023-08-06T07:21:41;2.30;;;1.27;;
41456;SDS011;27197;51.752;5.220;2023-08-06T07:24:12;1.90;;;1.25;;
41456;SDS011;27197;51.752;5.220;2023-08-06T07:26:45;2.00;;;1.30;;
41456;SDS011;27197;51.752;5.220;2023-08-06T07:29:14;2.65;;;1.62;;
41456;SDS011;27197;51.752;5.220;2023-08-06T07:31:50;1.70;;;1.10;;
41456;SDS011;27197;51.752;5.220;2023-08-06T07:34:20;2.10;;;1.35;;
41456;SDS011;27197;51.752;5.220;2023-08-06T07:36:54;2.10;;;1.55;;
41456;SDS011;27197;51.752;5.220;2023-08-06T07:39:24;2.17;;;1.10;;
41456;SDS011;27197;51.752;5.220;2023-08-06T07:41:55;1.87;;;1.35;;
41456;SDS011;27197;51.752;5.220;2023-08-06T07:44:24;2.30;;;1.35;;
41456;SDS011;27197;51.752;5.220;2023-08-06T07:46:57;1.70;;;1.00;;
41456;SDS011;27197;51.752;5.220;2023-08-06T07:49:28;2.00;;;1.20;;
41456;SDS011;27197;51.752;5.220;2023-08-06T07:51:57;1.82;;;1.22;;
41456;SDS011;27197;51.752;5.220;2023-08-06T07:54:29;1.82;;;1.30;;
41456;SDS011;27197;51.752;5.220;2023-08-06T07:57:03;2.45;;;1.50;;
41456;SDS011;27197;51.752;5.220;2023-08-06T07:59:39;2.30;;;1.50;;
41456;SDS011;27197;51.752;5.220;2023-08-06T08:02:10;2.22;;;1.15;;
41456;SDS011;27197;51.752;5.220;2023-08-06T08:04:40;3.10;;;1.62;;
41456;SDS011;27197;51.752;5.220;2023-08-06T08:07:14;1.95;;;1.20;;
41456;SDS011;27197;51.752;5.220;2023-08-06T08:09:44;2.12;;;1.37;;
41456;SDS011;27197;51.752;5.220;2023-08-06T08:12:19;3.80;;;1.52;;
41456;SDS011;27197;51.752;5.220;2023-08-06T08:14:47;2.27;;;1.40;;
41456;SDS011;27197;51.752;5.220;2023-08-06T08:17:18;3.20;;;1.60;;
41456;SDS011;27197;51.752;5.220;2023-08-06T08:22:37;2.22;;;1.30;;
41456;SDS011;27197;51.752;5.220;2023-08-06T08:25:07;2.58;;;1.37;;
41456;SDS011;27197;51.752;5.220;2023-08-06T08:27:38;2.08;;;1.20;;
41456;SDS011;27197;51.752;5.220;2023-08-06T08:30:13;3.58;;;1.07;;
41456;SDS011;27197;51.752;5.220;2023-08-06T08:32:44;3.05;;;1.35;;
41456;SDS011;27197;51.752;5.220;2023-08-06T08:35:15;2.42;;;1.27;;
41456;SDS011;27197;51.752;5.220;2023-08-06T08:37:46;2.75;;;1.42;;
41456;SDS011;27197;51.752;5.220;2023-08-06T08:40:21;2.35;;;1.40;;
41456;SDS011;27197;51.752;5.220;2023-08-06T08:42:56;3.08;;;1.30;;
41456;SDS011;27197;51.752;5.220;2023-08-06T08:45:29;3.10;;;1.37;;
41456;SDS011;27197;51.752;5.220;2023-08-06T08:50:48;2.37;;;1.37;;
41456;SDS011;27197;51.752;5.220;2023-08-06T08:53:21;2.37;;;1.15;;
41456;SDS011;27197;51.752;5.220;2023-08-06T08:55:55;2.45;;;1.12;;
41456;SDS011;27197;51.752;5.220;2023-08-06T08:58:28;3.27;;;1.50;;
41456;SDS011;27197;51.752;5.220;2023-08-06T09:00:58;2.75;;;1.52;;
41456;SDS011;27197;51.752;5.220;2023-08-06T09:03:29;1.95;;;1.27;;
41456;SDS011;27197;51.752;5.220;2023-08-06T09:06:06;2.27;;;1.00;;
41456;SDS011;27197;51.752;5.220;2023-08-06T09:08:41;2.22;;;1.22;;
41456;SDS011;27197;51.752;5.220;2023-08-06T09:11:10;1.75;;;1.10;;
41456;SDS011;27197;51.752;5.220;2023-08-06T09:13:43;2.22;;;1.30;;
41456;SDS011;27197;51.752;5.220;2023-08-06T09:16:15;2.45;;;1.40;;
41456;SDS011;27197;51.752;5.220;2023-08-06T09:18:48;3.10;;;1.30;;
41456;SDS011;27197;51.752;5.220;2023-08-06T09:21:21;2.27;;;1.25;;
41456;SDS011;27197;51.752;5.220;2023-08-06T09:23:51;1.75;;;1.07;;
41456;SDS011;27197;51.752;5.220;2023-08-06T09:26:32;2.10;;;1.15;;
41456;SDS011;27197;51.752;5.220;2023-08-06T09:28:57;3.33;;;1.27;;
41456;SDS011;27197;51.752;5.220;2023-08-06T09:31:41;2.00;;;1.00;;
41456;SDS011;27197;51.752;5.220;2023-08-06T09:34:15;2.55;;;1.12;;
41456;SDS011;27197;51.752;5.220;2023-08-06T09:36:54;3.47;;;1.17;;
41456;SDS011;27197;51.752;5.220;2023-08-06T09:39:28;3.27;;;1.40;;
41456;SDS011;27197;51.752;5.220;2023-08-06T09:42:01;3.52;;;2.08;;
41456;SDS011;27197;51.752;5.220;2023-08-06T09:44:33;2.05;;;1.17;;
41456;SDS011;27197;51.752;5.220;2023-08-06T09:47:04;1.82;;;1.10;;
41456;SDS011;27197;51.752;5.220;2023-08-06T09:52:11;1.50;;;1.00;;
41456;SDS011;27197;51.752;5.220;2023-08-06T09:54:43;2.75;;;1.20;;
41456;SDS011;27197;51.752;5.220;2023-08-06T09:57:17;2.30;;;1.30;;
41456;SDS011;27197;51.752;5.220;2023-08-06T09:59:47;2.70;;;1.12;;
41456;SDS011;27197;51.752;5.220;2023-08-06T10:02:21;1.70;;;0.95;;
41456;SDS011;27197;51.752;5.220;2023-08-06T10:04:51;1.98;;;1.30;;
41456;SDS011;27197;51.752;5.220;2023-08-06T10:07:21;3.00;;;0.90;;
41456;SDS011;27197;51.752;5.220;2023-08-06T10:09:52;2.62;;;1.30;;
41456;SDS011;27197;51.752;5.220;2023-08-06T10:12:23;2.90;;;1.20;;
41456;SDS011;27197;51.752;5.220;2023-08-06T10:14:55;1.77;;;0.85;;
41456;SDS011;27197;51.752;5.220;2023-08-06T10:17:28;2.77;;;1.10;;
41456;SDS011;27197;51.752;5.220;2023-08-06T10:25:53;1.60;;;1.00;;
41456;SDS011;27197;51.752;5.220;2023-08-06T10:28:30;3.57;;;1.10;;
41456;SDS011;27197;51.752;5.220;2023-08-06T10:31:07;2.37;;;1.10;;
41456;SDS011;27197;51.752;5.220;2023-08-06T10:33:41;2.17;;;1.05;;
41456;SDS011;27197;51.752;5.220;2023-08-06T10:36:15;3.15;;;1.20;;
41456;SDS011;27197;51.752;5.220;2023-08-06T10:38:50;2.33;;;1.10;;
41456;SDS011;27197;51.752;5.220;2023-08-06T10:41:23;2.33;;;1.35;;
41456;SDS011;27197;51.752;5.220;2023-08-06T10:44:06;2.37;;;1.40;;
41456;SDS011;27197;51.752;5.220;2023-08-06T10:52:49;1.62;;;1.12;;
41456;SDS011;27197;51.752;5.220;2023-08-06T10:55:24;2.20;;;1.17;;
41456;SDS011;27197;51.752;5.220;2023-08-06T10:57:56;4.42;;;1.80;;
41456;SDS011;27197;51.752;5.220;2023-08-06T11:00:33;2.05;;;1.22;;
41456;SDS011;27197;51.752;5.220;2023-08-06T11:03:03;1.32;;;0.90;;
41456;SDS011;27197;51.752;5.220;2023-08-06T11:05:35;1.52;;;0.93;;
41456;SDS011;27197;51.752;5.220;2023-08-06T11:08:05;2.08;;;1.12;;
41456;SDS011;27197;51.752;5.220;2023-08-06T11:10:42;2.00;;;1.00;;
41456;SDS011;27197;51.752;5.220;2023-08-06T11:13:11;2.87;;;1.00;;
41456;SDS011;27197;51.752;5.220;2023-08-06T11:15:44;2.30;;;1.02;;
41456;SDS011;27197;51.752;5.220;2023-08-06T11:18:15;1.98;;;1.10;;
41456;SDS011;27197;51.752;5.220;2023-08-06T11:20:46;3.35;;;1.00;;
41456;SDS011;27197;51.752;5.220;2023-08-06T11:25:57;2.52;;;1.10;;
41456;SDS011;27197;51.752;5.220;2023-08-06T11:28:45;2.22;;;1.35;;
41456;SDS011;27197;51.752;5.220;2023-08-06T11:31:20;2.65;;;1.20;;
41456;SDS011;27197;51.752;5.220;2023-08-06T11:41:57;1.77;;;1.00;;
41456;SDS011;27197;51.752;5.220;2023-08-06T11:44:27;2.93;;;1.17;;
41456;SDS011;27197;51.752;5.220;2023-08-06T11:47:02;2.98;;;1.37;;
41456;SDS011;27197;51.752;5.220;2023-08-06T11:49:37;2.58;;;1.00;;
41456;SDS011;27197;51.752;5.220;2023-08-06T11:52:19;1.50;;;0.90;;
41456;SDS011;27197;51.752;5.220;2023-08-06T11:55:02;2.47;;;1.00;;
41456;SDS011;27197;51.752;5.220;2023-08-06T12:00:30;1.95;;;1.10;;
41456;SDS011;27197;51.752;5.220;2023-08-06T12:03:00;2.72;;;1.17;;
41456;SDS011;27197;51.752;5.220;2023-08-06T12:05:34;1.60;;;1.00;;
41456;SDS011;27197;51.752;5.220;2023-08-06T12:08:12;2.20;;;1.20;;
41456;SDS011;27197;51.752;5.220;2023-08-06T12:10:42;1.72;;;1.02;;
41456;SDS011;27197;51.752;5.220;2023-08-06T12:13:15;1.95;;;1.10;;
41456;SDS011;27197;51.752;5.220;2023-08-06T12:15:47;1.52;;;0.98;;
41456;SDS011;27197;51.752;5.220;2023-08-06T12:18:20;1.77;;;1.00;;
41456;SDS011;27197;51.752;5.220;2023-08-06T12:20:52;2.30;;;1.00;;
41456;SDS011;27197;51.752;5.220;2023-08-06T12:23:24;2.17;;;1.17;;
41456;SDS011;27197;51.752;5.220;2023-08-06T12:25:54;1.98;;;0.75;;
41456;SDS011;27197;51.752;5.220;2023-08-06T12:28:27;1.92;;;1.02;;
41456;SDS011;27197;51.752;5.220;2023-08-06T12:30:58;1.80;;;1.05;;
41456;SDS011;27197;51.752;5.220;2023-08-06T12:33:32;1.87;;;1.07;;
41456;SDS011;27197;51.752;5.220;2023-08-06T12:36:02;1.75;;;1.00;;
41456;SDS011;27197;51.752;5.220;2023-08-06T12:38:32;1.70;;;0.95;;
41456;SDS011;27197;51.752;5.220;2023-08-06T12:41:04;1.47;;;1.00;;
41456;SDS011;27197;51.752;5.220;2023-08-06T12:43:39;2.27;;;1.00;;
41456;SDS011;27197;51.752;5.220;2023-08-06T12:46:13;1.82;;;1.07;;
41456;SDS011;27197;51.752;5.220;2023-08-06T12:48:44;2.27;;;1.05;;
41456;SDS011;27197;51.752;5.220;2023-08-06T12:51:20;2.20;;;1.07;;
41456;SDS011;27197;51.752;5.220;2023-08-06T12:53:53;1.75;;;1.20;;
41456;SDS011;27197;51.752;5.220;2023-08-06T12:56:28;2.55;;;1.12;;
41456;SDS011;27197;51.752;5.220;2023-08-06T12:58:57;2.00;;;1.10;;
41456;SDS011;27197;51.752;5.220;2023-08-06T13:01:27;1.98;;;0.90;;
41456;SDS011;27197;51.752;5.220;2023-08-06T13:04:03;1.80;;;1.00;;
41456;SDS011;27197;51.752;5.220;2023-08-06T13:06:33;1.10;;;0.62;;
41456;SDS011;27197;51.752;5.220;2023-08-06T13:09:11;1.80;;;0.80;;
41456;SDS011;27197;51.752;5.220;2023-08-06T13:11:42;1.92;;;1.00;;
41456;SDS011;27197;51.752;5.220;2023-08-06T13:14:16;1.62;;;1.00;;
41456;SDS011;27197;51.752;5.220;2023-08-06T13:16:46;2.75;;;1.20;;
41456;SDS011;27197;51.752;5.220;2023-08-06T13:19:18;1.72;;;1.00;;
41456;SDS011;27197;51.752;5.220;2023-08-06T13:24:22;2.30;;;0.90;;
41456;SDS011;27197;51.752;5.220;2023-08-06T13:26:55;1.70;;;1.07;;
41456;SDS011;27197;51.752;5.220;2023-08-06T13:29:28;2.35;;;1.30;;
41456;SDS011;27197;51.752;5.220;2023-08-06T13:32:00;1.35;;;0.85;;
41456;SDS011;27197;51.752;5.220;2023-08-06T13:34:32;1.52;;;1.02;;
41456;SDS011;27197;51.752;5.220;2023-08-06T13:37:01;1.55;;;1.05;;
41456;SDS011;27197;51.752;5.220;2023-08-06T13:39:30;2.17;;;0.90;;
41456;SDS011;27197;51.752;5.220;2023-08-06T13:42:01;2.35;;;1.20;;
41456;SDS011;27197;51.752;5.220;2023-08-06T13:44:30;1.92;;;0.90;;
41456;SDS011;27197;51.752;5.220;2023-08-06T13:47:02;1.47;;;1.00;;
41456;SDS011;27197;51.752;5.220;2023-08-06T13:49:30;3.40;;;0.90;;
41456;SDS011;27197;51.752;5.220;2023-08-06T13:52:01;1.35;;;0.88;;
41456;SDS011;27197;51.752;5.220;2023-08-06T13:54:36;2.55;;;0.80;;
41456;SDS011;27197;51.752;5.220;2023-08-06T13:57:09;2.02;;;0.88;;
41456;SDS011;27197;51.752;5.220;2023-08-06T13:59:38;1.77;;;1.02;;
41456;SDS011;27197;51.752;5.220;2023-08-06T14:02:09;1.85;;;0.80;;
41456;SDS011;27197;51.752;5.220;2023-08-06T14:04:42;2.00;;;0.95;;
41456;SDS011;27197;51.752;5.220;2023-08-06T14:07:14;1.72;;;0.88;;
41456;SDS011;27197;51.752;5.220;2023-08-06T14:09:46;1.92;;;1.00;;
41456;SDS011;27197;51.752;5.220;2023-08-06T14:12:15;1.80;;;0.93;;
41456;SDS011;27197;51.752;5.220;2023-08-06T14:14:45;1.87;;;1.02;;
41456;SDS011;27197;51.752;5.220;2023-08-06T14:17:22;1.25;;;0.80;;
41456;SDS011;27197;51.752;5.220;2023-08-06T14:19:52;2.17;;;0.85;;
41456;SDS011;27197;51.752;5.220;2023-08-06T14:22:24;2.70;;;1.00;;
41456;SDS011;27197;51.752;5.220;2023-08-06T14:24:56;1.77;;;0.90;;
41456;SDS011;27197;51.752;5.220;2023-08-06T14:27:29;1.87;;;0.90;;
41456;SDS011;27197;51.752;5.220;2023-08-06T14:30:00;1.52;;;0.85;;
41456;SDS011;27197;51.752;5.220;2023-08-06T14:32:31;1.35;;;0.90;;
41456;SDS011;27197;51.752;5.220;2023-08-06T14:35:04;2.65;;;1.02;;
41456;SDS011;27197;51.752;5.220;2023-08-06T14:37:34;2.55;;;1.00;;
41456;SDS011;27197;51.752;5.220;2023-08-06T14:40:04;2.70;;;0.70;;
41456;SDS011;27197;51.752;5.220;2023-08-06T14:42:36;1.40;;;0.90;;
41456;SDS011;27197;51.752;5.220;2023-08-06T14:45:06;2.10;;;0.78;;
41456;SDS011;27197;51.752;5.220;2023-08-06T14:47:38;1.47;;;0.80;;
41456;SDS011;27197;51.752;5.220;2023-08-06T14:50:11;1.62;;;0.90;;
41456;SDS011;27197;51.752;5.220;2023-08-06T14:52:41;1.65;;;0.90;;
41456;SDS011;27197;51.752;5.220;2023-08-06T14:55:15;1.17;;;0.60;;
41456;SDS011;27197;51.752;5.220;2023-08-06T14:57:55;1.20;;;0.60;;
41456;SDS011;27197;51.752;5.220;2023-08-06T15:00:28;1.98;;;0.80;;
41456;SDS011;27197;51.752;5.220;2023-08-06T15:03:01;1.75;;;0.90;;
41456;SDS011;27197;51.752;5.220;2023-08-06T15:05:34;0.98;;;0.60;;
41456;SDS011;27197;51.752;5.220;2023-08-06T15:08:05;1.65;;;0.98;;
41456;SDS011;27197;51.752;5.220;2023-08-06T15:10:39;1.05;;;0.65;;
41456;SDS011;27197;51.752;5.220;2023-08-06T15:13:09;2.20;;;0.80;;
41456;SDS011;27197;51.752;5.220;2023-08-06T15:15:41;1.22;;;0.70;;
41456;SDS011;27197;51.752;5.220;2023-08-06T15:18:10;2.90;;;1.12;;
41456;SDS011;27197;51.752;5.220;2023-08-06T15:20:42;2.47;;;0.75;;
41456;SDS011;27197;51.752;5.220;2023-08-06T15:23:16;1.62;;;0.90;;
41456;SDS011;27197;51.752;5.220;2023-08-06T15:25:45;1.70;;;0.80;;
41456;SDS011;27197;51.752;5.220;2023-08-06T15:28:15;1.00;;;0.70;;
41456;SDS011;27197;51.752;5.220;2023-08-06T15:30:48;2.12;;;0.85;;
41456;SDS011;27197;51.752;5.220;2023-08-06T15:33:22;3.10;;;0.90;;
41456;SDS011;27197;51.752;5.220;2023-08-06T15:35:53;1.25;;;1.00;;
41456;SDS011;27197;51.752;5.220;2023-08-06T15:38:23;1.67;;;0.65;;
41456;SDS011;27197;51.752;5.220;2023-08-06T15:40:54;2.10;;;0.80;;
41456;SDS011;27197;51.752;5.220;2023-08-06T15:43:25;2.15;;;0.90;;
41456;SDS011;27197;51.752;5.220;2023-08-06T15:45:54;2.22;;;0.80;;
41456;SDS011;27197;51.752;5.220;2023-08-06T15:48:24;1.37;;;0.80;;
41456;SDS011;27197;51.752;5.220;2023-08-06T15:50:57;1.82;;;0.78;;
41456;SDS011;27197;51.752;5.220;2023-08-06T15:53:29;2.12;;;0.90;;
41456;SDS011;27197;51.752;5.220;2023-08-06T15:55:59;1.65;;;0.70;;
41456;SDS011;27197;51.752;5.220;2023-08-06T15:58:28;2.60;;;0.88;;
41456;SDS011;27197;51.752;5.220;2023-08-06T16:00:58;1.62;;;0.90;;
41456;SDS011;27197;51.752;5.220;2023-08-06T16:03:28;2.92;;;0.70;;